Time;durP1;ratioP1;P1;durP2;ratioP2;P2;SDS_P1;SDS_P2;PMS_P1;PMS_P2;Temp;Humidity;BMP_temperature;BMP_pressure;BME280_temperature;BME280_humidity;BME280_pressure;Samples;Min_cycle;Max_cycle;Signal;HPM_P1;HPM_P2
2021/12/28 00:01:31;;;;;;;17.30;5.68;;;;;15.40;99256.00;;;;5031087;28;20599;-83
2021/12/28 00:03:59;;;;;;;7.13;4.85;;;;;15.40;99251.00;;;;5031676;28;20541;-83
2021/12/28 00:06:26;;;;;;;6.28;4.80;;;;;15.40;99246.00;;;;5030654;28;20196;-83
2021/12/28 00:08:54;;;;;;;8.35;4.32;;;;;15.30;99245.00;;;;5030284;28;20206;-84
2021/12/28 00:11:21;;;;;;;7.15;4.78;;;;;15.30;99249.00;;;;5031720;28;20204;-83
2021/12/28 00:13:51;;;;;;;7.50;4.78;;;;;15.30;99242.00;;;;5031027;28;20196;-83
2021/12/28 00:16:31;;;;;;;6.35;4.28;;;;;15.30;99243.00;;;;5030514;28;20228;-83
2021/12/28 00:19:00;;;;;;;4.60;4.15;;;;;15.30;99241.00;;;;5043726;28;20321;-83
2021/12/28 00:21:28;;;;;;;7.82;4.05;;;;;15.30;99245.00;;;;5050837;28;20214;-83
2021/12/28 00:23:57;;;;;;;8.15;4.00;;;;;15.30;99250.00;;;;5050678;28;20261;-83
2021/12/28 00:26:24;;;;;;;5.88;4.20;;;;;15.20;99246.00;;;;5051316;28;20196;-83
2021/12/28 00:28:53;;;;;;;6.47;4.03;;;;;15.20;99241.00;;;;5041886;28;20546;-83
2021/12/28 00:31:22;;;;;;;4.40;3.30;;;;;15.20;99244.00;;;;5029871;28;20204;-83
2021/12/28 00:33:49;;;;;;;5.03;3.72;;;;;15.10;99240.00;;;;5030208;28;20195;-83
2021/12/28 00:36:16;;;;;;;3.85;3.15;;;;;15.10;99242.00;;;;5030404;28;20207;-84
2021/12/28 00:38:44;;;;;;;5.57;3.55;;;;;15.10;99248.00;;;;5029837;28;20286;-83
2021/12/28 00:41:12;;;;;;;5.15;3.35;;;;;15.00;99253.00;;;;5029708;28;20211;-83
2021/12/28 00:43:39;;;;;;;5.78;3.28;;;;;15.00;99247.00;;;;5029594;28;20212;-84
2021/12/28 00:46:10;;;;;;;4.82;3.08;;;;;15.00;99250.00;;;;5030139;28;20215;-83
2021/12/28 00:48:37;;;;;;;5.00;3.33;;;;;14.90;99246.00;;;;5029413;28;20294;-83
2021/12/28 00:51:05;;;;;;;4.30;3.20;;;;;14.90;99249.00;;;;5029398;28;20196;-83
2021/12/28 00:53:33;;;;;;;6.25;2.97;;;;;14.90;99249.00;;;;5028854;28;20196;-83
2021/12/28 00:56:00;;;;;;;6.38;3.78;;;;;14.80;99246.00;;;;5030101;28;20650;-83
2021/12/28 00:58:28;;;;;;;4.13;3.30;;;;;14.80;99238.00;;;;5029630;28;20296;-83
2021/12/28 01:00:56;;;;;;;4.72;2.90;;;;;14.80;99242.00;;;;5028128;28;20204;-83
2021/12/28 01:03:24;;;;;;;3.83;3.15;;;;;14.70;99239.00;;;;5029381;28;20201;-83
2021/12/28 01:05:52;;;;;;;3.55;3.05;;;;;14.70;99234.00;;;;5028760;28;20192;-83
2021/12/28 01:08:20;;;;;;;4.55;2.80;;;;;14.70;99228.00;;;;5029454;28;20227;-84
2021/12/28 01:10:50;;;;;;;3.15;2.47;;;;;14.60;99221.00;;;;5029321;28;20681;-83
2021/12/28 01:13:18;;;;;;;3.53;2.63;;;;;14.60;99218.00;;;;5029039;28;20605;-83
2021/12/28 01:15:45;;;;;;;4.18;2.42;;;;;14.60;99216.00;;;;5028463;28;20232;-83
2021/12/28 01:18:13;;;;;;;4.32;2.90;;;;;14.60;99217.00;;;;5035740;28;20199;-83
2021/12/28 01:20:43;;;;;;;3.90;2.40;;;;;14.60;99211.00;;;;5033066;28;20208;-83
2021/12/28 01:23:11;;;;;;;4.22;2.40;;;;;14.60;99214.00;;;;5029057;28;20236;-84
2021/12/28 01:25:39;;;;;;;4.82;3.13;;;;;14.60;99214.00;;;;5028567;28;20211;-83
2021/12/28 01:28:07;;;;;;;5.18;2.63;;;;;14.60;99216.00;;;;5028703;28;20197;-83
2021/12/28 01:30:35;;;;;;;2.78;2.47;;;;;14.60;99214.00;;;;5028281;28;20195;-83
2021/12/28 01:33:02;;;;;;;6.05;2.33;;;;;14.60;99211.00;;;;5029190;28;20212;-83
2021/12/28 01:35:32;;;;;;;6.93;2.83;;;;;14.60;99214.00;;;;5048146;28;20278;-83
2021/12/28 01:38:02;;;;;;;5.70;2.30;;;;;14.60;99210.00;;;;5031086;28;20226;-84
2021/12/28 01:40:32;;;;;;;4.80;2.60;;;;;14.60;99211.00;;;;5028211;28;20224;-84
2021/12/28 01:43:08;;;;;;;4.53;2.35;;;;;14.50;99215.00;;;;5028144;28;20204;-83
2021/12/28 01:45:39;;;;;;;8.85;2.85;;;;;14.50;99214.00;;;;5027776;28;20203;-83
2021/12/28 01:48:08;;;;;;;6.68;2.60;;;;;14.60;99208.00;;;;5028765;28;20560;-83
2021/12/28 01:50:37;;;;;;;3.03;2.05;;;;;14.50;99212.00;;;;5028905;28;20208;-83
2021/12/28 01:53:08;;;;;;;5.10;2.58;;;;;14.50;99220.00;;;;5029347;28;20207;-83
2021/12/28 01:55:37;;;;;;;3.92;2.40;;;;;14.50;99206.00;;;;5029013;28;20207;-83
2021/12/28 01:58:05;;;;;;;3.03;1.92;;;;;14.50;99205.00;;;;5029164;28;20216;-83
2021/12/28 02:00:33;;;;;;;5.25;2.08;;;;;14.40;99201.00;;;;5028071;28;20223;-83
2021/12/28 02:03:00;;;;;;;3.83;2.15;;;;;14.40;99202.00;;;;5029352;28;20227;-84
2021/12/28 02:05:27;;;;;;;3.13;2.08;;;;;14.40;99204.00;;;;5028837;28;20614;-82
2021/12/28 02:07:55;;;;;;;7.35;2.60;;;;;14.30;99207.00;;;;5029001;28;20647;-83
2021/12/28 02:10:23;;;;;;;3.78;1.65;;;;;14.30;99206.00;;;;5030014;28;20610;-84
2021/12/28 02:12:50;;;;;;;3.97;1.92;;;;;14.30;99195.00;;;;5028864;28;20212;-83
2021/12/28 02:15:18;;;;;;;4.55;2.15;;;;;14.20;99201.00;;;;5028225;28;20200;-83
2021/12/28 02:17:45;;;;;;;4.63;1.90;;;;;14.20;99196.00;;;;5030285;28;20200;-83
2021/12/28 02:20:17;;;;;;;5.00;2.28;;;;;14.20;99200.00;;;;5048221;28;20238;-83
2021/12/28 02:22:44;;;;;;;4.63;2.10;;;;;14.20;99190.00;;;;5047482;28;20207;-83
2021/12/28 02:25:13;;;;;;;9.90;1.90;;;;;14.20;99196.00;;;;5047504;28;20203;-83
2021/12/28 02:27:40;;;;;;;3.60;1.88;;;;;14.20;99184.00;;;;5041240;28;20211;-83
2021/12/28 02:30:10;;;;;;;5.80;2.35;;;;;14.20;99190.00;;;;5028117;28;20208;-83
2021/12/28 02:32:39;;;;;;;6.43;2.20;;;;;14.20;99193.00;;;;5027649;28;20199;-84
2021/12/28 02:35:08;;;;;;;5.60;2.20;;;;;14.20;99191.00;;;;5027008;28;20199;-83
2021/12/28 02:37:37;;;;;;;8.07;2.78;;;;;14.20;99193.00;;;;5027693;28;20207;-83
2021/12/28 02:40:06;;;;;;;7.30;2.08;;;;;14.30;99187.00;;;;5027889;28;20232;-83
2021/12/28 02:42:34;;;;;;;4.00;2.30;;;;;14.30;99177.00;;;;5027639;28;20204;-83
2021/12/28 02:45:09;;;;;;;7.13;2.67;;;;;14.30;99171.00;;;;5035881;28;20204;-83
2021/12/28 02:47:37;;;;;;;4.70;2.08;;;;;14.30;99177.00;;;;5047295;28;20209;-83
2021/12/28 02:50:08;;;;;;;3.25;2.25;;;;;14.30;99166.00;;;;5047483;28;20605;-83
2021/12/28 02:52:38;;;;;;;5.20;1.73;;;;;14.30;99168.00;;;;5047428;28;20230;-83
2021/12/28 02:55:06;;;;;;;5.13;2.10;;;;;14.30;99167.00;;;;5047427;28;20672;-83
2021/12/28 02:57:33;;;;;;;6.75;2.10;;;;;14.30;99157.00;;;;5047824;28;20238;-83
2021/12/28 03:00:01;;;;;;;8.02;2.55;;;;;14.30;99159.00;;;;5046530;28;20231;-83
2021/12/28 03:02:28;;;;;;;5.35;1.70;;;;;14.30;99159.00;;;;5034977;28;20211;-83
2021/12/28 03:04:55;;;;;;;7.85;2.10;;;;;14.30;99153.00;;;;5027559;28;20289;-83
2021/12/28 03:07:23;;;;;;;6.38;2.28;;;;;14.40;99153.00;;;;5027608;28;20227;-83
2021/12/28 03:09:51;;;;;;;5.00;2.08;;;;;14.30;99150.00;;;;5027915;28;20539;-84
2021/12/28 03:12:19;;;;;;;4.35;2.00;;;;;14.40;99151.00;;;;5027634;28;20681;-83
2021/12/28 03:14:49;;;;;;;6.57;2.00;;;;;14.40;99147.00;;;;5026604;28;20671;-83
2021/12/28 03:17:16;;;;;;;5.65;1.92;;;;;14.40;99142.00;;;;5026837;28;20228;-83
2021/12/28 03:19:43;;;;;;;7.00;2.33;;;;;14.40;99151.00;;;;5029775;28;20227;-83
2021/12/28 03:22:11;;;;;;;4.35;2.42;;;;;14.40;99146.00;;;;5027429;28;20573;-83
2021/12/28 03:24:38;;;;;;;7.72;1.88;;;;;14.40;99141.00;;;;5029911;28;20215;-83
2021/12/28 03:27:07;;;;;;;7.53;2.10;;;;;14.40;99145.00;;;;5031499;28;20216;-83
2021/12/28 03:29:34;;;;;;;7.65;1.85;;;;;14.40;99134.00;;;;5031148;28;20200;-83
2021/12/28 03:32:01;;;;;;;6.68;2.10;;;;;14.50;99133.00;;;;5031639;28;20196;-83
2021/12/28 03:34:28;;;;;;;8.68;2.53;;;;;14.40;99131.00;;;;5031339;28;20196;-83
2021/12/28 03:36:56;;;;;;;9.10;2.47;;;;;14.50;99129.00;;;;5031884;28;20613;-83
2021/12/28 03:39:23;;;;;;;6.97;2.00;;;;;14.50;99123.00;;;;5031480;28;20228;-83
2021/12/28 03:41:50;;;;;;;5.13;1.67;;;;;14.50;99117.00;;;;5043469;28;20211;-83
2021/12/28 03:44:19;;;;;;;6.90;1.92;;;;;14.50;99116.00;;;;5051041;28;20207;-83
2021/12/28 03:46:46;;;;;;;6.97;1.70;;;;;14.50;99122.00;;;;5050836;28;20665;-83
2021/12/28 03:49:13;;;;;;;7.50;1.90;;;;;14.50;99122.00;;;;5050963;28;20203;-83
2021/12/28 03:51:41;;;;;;;5.07;1.45;;;;;14.50;99112.00;;;;5051073;28;20203;-83
2021/12/28 03:54:08;;;;;;;4.18;1.65;;;;;14.50;99104.00;;;;5049661;28;20211;-83
2021/12/28 03:56:35;;;;;;;5.00;1.80;;;;;14.50;99109.00;;;;5050790;28;20217;-83
2021/12/28 03:59:02;;;;;;;5.63;1.58;;;;;14.50;99105.00;;;;5050883;28;20584;-83
2021/12/28 04:01:31;;;;;;;5.22;2.30;;;;;14.50;99108.00;;;;5050807;28;20234;-83
2021/12/28 04:03:58;;;;;;;3.65;1.48;;;;;14.50;99102.00;;;;5050378;28;20203;-83
2021/12/28 04:06:26;;;;;;;4.38;1.60;;;;;14.50;99097.00;;;;5050854;28;20196;-83
2021/12/28 04:08:56;;;;;;;5.22;1.63;;;;;14.50;99091.00;;;;5050404;28;20696;-83
2021/12/28 04:11:29;;;;;;;2.97;1.50;;;;;14.50;99091.00;;;;5030985;28;20212;-83
2021/12/28 04:14:00;;;;;;;5.10;1.92;;;;;14.50;99092.00;;;;5030182;28;20208;-83
2021/12/28 04:16:30;;;;;;;4.88;1.70;;;;;14.50;99086.00;;;;5030020;28;20724;-83
2021/12/28 04:18:58;;;;;;;4.70;1.67;;;;;14.50;99092.00;;;;5041267;28;20204;-83
2021/12/28 04:21:26;;;;;;;5.50;1.83;;;;;14.50;99081.00;;;;5050245;28;20230;-83
2021/12/28 04:23:53;;;;;;;5.55;1.77;;;;;14.50;99084.00;;;;5050531;28;20230;-83
2021/12/28 04:26:21;;;;;;;6.95;2.05;;;;;14.50;99084.00;;;;5046663;28;20204;-83
2021/12/28 04:28:48;;;;;;;4.60;1.73;;;;;14.50;99087.00;;;;5030503;28;20254;-83
2021/12/28 04:31:16;;;;;;;6.97;1.90;;;;;14.50;99084.00;;;;5029388;28;20196;-83
2021/12/28 04:33:44;;;;;;;4.90;1.30;;;;;14.50;99088.00;;;;5029808;28;20200;-82
2021/12/28 04:36:13;;;;;;;5.80;1.30;;;;;14.50;99087.00;;;;5030294;28;20207;-82
2021/12/28 04:38:42;;;;;;;6.30;1.85;;;;;14.50;99082.00;;;;5029338;28;20204;-83
2021/12/28 04:41:10;;;;;;;5.28;1.50;;;;;14.50;99075.00;;;;5029328;28;20323;-83
2021/12/28 04:43:38;;;;;;;5.72;1.73;;;;;14.50;99076.00;;;;5029539;28;20227;-83
2021/12/28 04:46:06;;;;;;;3.47;1.40;;;;;14.50;99073.00;;;;5029534;28;20204;-82
2021/12/28 04:48:34;;;;;;;6.35;1.80;;;;;14.50;99071.00;;;;5029031;28;20235;-83
2021/12/28 04:51:03;;;;;;;5.90;1.67;;;;;14.50;99075.00;;;;5029121;28;20204;-83
2021/12/28 04:53:31;;;;;;;5.53;1.38;;;;;14.50;99078.00;;;;5029762;28;20196;-82
2021/12/28 04:55:58;;;;;;;6.43;1.63;;;;;14.50;99088.00;;;;5030238;28;20637;-83
2021/12/28 04:58:26;;;;;;;6.03;2.20;;;;;14.50;99079.00;;;;5049287;28;20772;-83
2021/12/28 05:00:55;;;;;;;3.53;1.15;;;;;14.60;99075.00;;;;5048258;28;20235;-83
2021/12/28 05:03:22;;;;;;;3.95;1.25;;;;;14.60;99073.00;;;;5048862;28;20602;-83
2021/12/28 05:05:51;;;;;;;7.15;1.70;;;;;14.60;99069.00;;;;5049334;28;20211;-82
2021/12/28 05:08:22;;;;;;;9.15;1.83;;;;;14.60;99070.00;;;;5049007;28;20203;-83
2021/12/28 05:10:50;;;;;;;5.95;2.20;;;;;14.60;99060.00;;;;5048081;28;20211;-83
2021/12/28 05:13:18;;;;;;;4.63;1.33;;;;;14.60;99053.00;;;;5049113;28;20290;-83
2021/12/28 05:15:46;;;;;;;4.47;2.05;;;;;14.60;99051.00;;;;5033867;28;20232;-83
2021/12/28 05:18:14;;;;;;;4.60;1.42;;;;;14.60;99053.00;;;;5038780;28;20200;-83
2021/12/28 05:20:42;;;;;;;8.80;1.92;;;;;14.60;99043.00;;;;5048384;28;20223;-82
2021/12/28 05:23:10;;;;;;;5.78;2.05;;;;;14.60;99041.00;;;;5048251;28;20207;-83
2021/12/28 05:25:39;;;;;;;10.45;2.17;;;;;14.60;99038.00;;;;5048660;28;20214;-83
2021/12/28 05:28:07;;;;;;;3.33;1.35;;;;;14.60;99039.00;;;;5048765;28;20203;-83
2021/12/28 05:30:35;;;;;;;5.13;1.45;;;;;14.60;99037.00;;;;5048130;28;20207;-83
2021/12/28 05:33:02;;;;;;;5.63;1.33;;;;;14.60;99029.00;;;;5048312;28;20196;-83
2021/12/28 05:35:29;;;;;;;7.57;2.47;;;;;14.70;99031.00;;;;5035856;28;20611;-82
2021/12/28 05:37:56;;;;;;;5.20;1.48;;;;;14.70;99020.00;;;;5028591;28;20200;-83
2021/12/28 05:40:24;;;;;;;3.38;1.27;;;;;14.70;99022.00;;;;5028521;28;20232;-83
2021/12/28 05:42:52;;;;;;;6.93;1.40;;;;;14.70;99021.00;;;;5028135;28;20254;-83
2021/12/28 05:45:20;;;;;;;6.30;1.90;;;;;14.70;99017.00;;;;5028591;28;20207;-83
2021/12/28 05:47:47;;;;;;;3.38;1.42;;;;;14.70;99007.00;;;;5027592;28;20193;-83
2021/12/28 05:50:15;;;;;;;6.80;1.85;;;;;14.70;99007.00;;;;5028252;28;20201;-83
2021/12/28 05:52:42;;;;;;;7.35;1.88;;;;;14.70;99003.00;;;;5028627;28;20207;-83
2021/12/28 05:55:10;;;;;;;4.70;1.80;;;;;14.70;98998.00;;;;5027808;28;20211;-82
2021/12/28 05:57:37;;;;;;;3.83;1.40;;;;;14.70;99001.00;;;;5027732;28;20694;-83
2021/12/28 06:00:08;;;;;;;3.97;1.45;;;;;14.70;98988.00;;;;5028365;28;20247;-83
2021/12/28 06:02:35;;;;;;;4.20;1.50;;;;;14.70;98992.00;;;;5027664;28;20204;-83
2021/12/28 06:05:03;;;;;;;8.63;1.45;;;;;14.70;98996.00;;;;5028474;28;20204;-83
2021/12/28 06:07:30;;;;;;;7.65;1.80;;;;;14.70;98996.00;;;;5028204;28;20254;-82
2021/12/28 06:09:58;;;;;;;2.88;1.40;;;;;14.70;99003.00;;;;5044220;28;20257;-83
2021/12/28 06:12:26;;;;;;;6.78;1.35;;;;;14.70;98996.00;;;;5048056;28;20230;-83
2021/12/28 06:14:53;;;;;;;2.88;0.98;;;;;14.80;98994.00;;;;5047096;28;20209;-83
2021/12/28 06:17:22;;;;;;;5.70;1.20;;;;;14.70;98993.00;;;;5047825;28;20231;-83
2021/12/28 06:19:49;;;;;;;5.13;1.42;;;;;14.80;98987.00;;;;5047481;28;20291;-83
2021/12/28 06:22:17;;;;;;;5.22;1.02;;;;;14.80;98984.00;;;;5047826;28;20199;-83
2021/12/28 06:24:44;;;;;;;4.93;1.27;;;;;14.80;98992.00;;;;5047497;28;20199;-83
2021/12/28 06:27:11;;;;;;;3.78;1.30;;;;;14.80;98989.00;;;;5028548;28;20552;-83
2021/12/28 06:29:39;;;;;;;3.20;1.20;;;;;14.80;98989.00;;;;5027729;28;20207;-83
2021/12/28 06:32:07;;;;;;;5.40;1.48;;;;;14.80;98983.00;;;;5027437;28;20204;-83
2021/12/28 06:34:35;;;;;;;4.35;1.05;;;;;14.80;98990.00;;;;5027627;28;20227;-84
2021/12/28 06:37:03;;;;;;;3.30;1.25;;;;;14.90;98983.00;;;;5027917;28;20616;-83
2021/12/28 06:39:30;;;;;;;4.43;1.33;;;;;14.90;98976.00;;;;5031288;28;20204;-83
2021/12/28 06:41:58;;;;;;;6.80;1.35;;;;;14.90;98974.00;;;;5045969;28;20231;-83
2021/12/28 06:44:25;;;;;;;6.07;0.98;;;;;14.90;98968.00;;;;5028165;28;20561;-83
2021/12/28 06:46:53;;;;;;;3.00;1.10;;;;;14.90;98975.00;;;;5027619;28;20699;-84
2021/12/28 06:49:20;;;;;;;3.70;0.73;;;;;14.90;98975.00;;;;5027753;28;20208;-84
2021/12/28 06:51:49;;;;;;;3.75;0.85;;;;;14.90;98968.00;;;;5027055;28;20205;-84
2021/12/28 06:54:16;;;;;;;2.63;0.82;;;;;15.00;98967.00;;;;5027088;28;20701;-83
2021/12/28 06:56:44;;;;;;;4.95;1.10;;;;;15.00;98958.00;;;;5027336;28;20219;-83
2021/12/28 06:59:11;;;;;;;6.63;1.30;;;;;15.00;98954.00;;;;5030433;28;20211;-83
2021/12/28 07:01:38;;;;;;;1.88;0.90;;;;;15.00;98953.00;;;;5031673;28;20231;-83
2021/12/28 07:04:06;;;;;;;3.95;0.98;;;;;15.00;98950.00;;;;5032113;28;20207;-84
2021/12/28 07:06:33;;;;;;;5.28;1.08;;;;;15.00;98952.00;;;;5032156;28;20192;-83
2021/12/28 07:09:01;;;;;;;5.25;0.90;;;;;15.00;98953.00;;;;5032579;28;20203;-83
2021/12/28 07:11:29;;;;;;;2.03;0.80;;;;;15.10;98954.00;;;;5031576;28;20192;-84
2021/12/28 07:13:56;;;;;;;1.63;0.68;;;;;15.10;98944.00;;;;5032029;28;20205;-84
2021/12/28 07:16:23;;;;;;;3.03;0.68;;;;;15.10;98945.00;;;;5031031;28;20228;-84
2021/12/28 07:18:50;;;;;;;3.00;1.02;;;;;15.20;98943.00;;;;5037718;28;20242;-84
2021/12/28 07:21:18;;;;;;;4.85;0.95;;;;;15.20;98942.00;;;;5051695;28;20267;-84
2021/12/28 07:23:45;;;;;;;4.32;0.82;;;;;15.20;98949.00;;;;5051812;28;20230;-84
2021/12/28 07:26:13;;;;;;;3.88;0.93;;;;;15.20;98944.00;;;;5051662;28;20196;-84
2021/12/28 07:28:41;;;;;;;2.75;1.20;;;;;15.20;98945.00;;;;5051070;28;20207;-82
2021/12/28 07:31:08;;;;;;;2.33;0.77;;;;;15.20;98943.00;;;;5051191;28;20203;-82
2021/12/28 07:33:36;;;;;;;2.63;0.80;;;;;15.30;98940.00;;;;5046045;28;20235;-84
2021/12/28 07:36:03;;;;;;;1.17;0.52;;;;;15.30;98949.00;;;;5031032;28;20211;-84
2021/12/28 07:38:31;;;;;;;3.67;1.00;;;;;15.30;98942.00;;;;5030742;28;20212;-84
2021/12/28 07:40:58;;;;;;;2.85;0.60;;;;;15.30;98941.00;;;;5031455;28;20236;-84
2021/12/28 07:43:26;;;;;;;1.58;0.70;;;;;15.30;98944.00;;;;5031085;28;20205;-84
2021/12/28 07:45:54;;;;;;;2.60;0.73;;;;;15.30;98954.00;;;;5030349;28;20208;-84
2021/12/28 07:48:21;;;;;;;2.90;1.10;;;;;15.30;98939.00;;;;5030894;28;20200;-85
2021/12/28 07:50:48;;;;;;;2.20;1.00;;;;;15.40;98942.00;;;;5029793;28;20204;-84
2021/12/28 07:53:15;;;;;;;3.33;0.93;;;;;15.40;98946.00;;;;5028211;28;20196;-84
2021/12/28 07:55:43;;;;;;;2.25;0.57;;;;;15.40;98936.00;;;;5028692;28;20196;-84
2021/12/28 07:58:10;;;;;;;2.67;0.80;;;;;15.40;98938.00;;;;5028419;28;20228;-84
2021/12/28 08:00:38;;;;;;;1.45;0.40;;;;;15.40;98929.00;;;;5028827;28;20204;-84
2021/12/28 08:03:06;;;;;;;4.22;0.68;;;;;15.40;98935.00;;;;5030018;28;20690;-84
2021/12/28 08:05:34;;;;;;;2.58;0.47;;;;;15.50;98934.00;;;;5029616;28;20203;-85
2021/12/28 08:08:01;;;;;;;1.63;0.77;;;;;15.50;98935.00;;;;5038622;28;20208;-85
2021/12/28 08:10:29;;;;;;;1.30;0.90;;;;;15.50;98929.00;;;;5049924;28;20203;-85
2021/12/28 08:12:57;;;;;;;2.80;0.85;;;;;15.50;98926.00;;;;5049578;28;20192;-84
2021/12/28 08:15:26;;;;;;;2.40;0.93;;;;;15.50;98926.00;;;;5049632;28;20323;-84
2021/12/28 08:17:55;;;;;;;1.50;0.65;;;;;15.50;98925.00;;;;5049966;28;20206;-84
2021/12/28 08:20:22;;;;;;;2.45;0.90;;;;;15.50;98922.00;;;;5050247;28;20211;-85
2021/12/28 08:22:50;;;;;;;2.78;0.98;;;;;15.50;98926.00;;;;5050105;28;20234;-85
2021/12/28 08:25:19;;;;;;;1.10;0.73;;;;;15.50;98922.00;;;;5038326;28;20204;-85
2021/12/28 08:27:47;;;;;;;1.77;1.02;;;;;15.50;98917.00;;;;5037163;28;20579;-85
2021/12/28 08:30:15;;;;;;;2.33;0.80;;;;;15.50;98919.00;;;;5050077;28;20696;-85
2021/12/28 08:32:43;;;;;;;1.65;0.80;;;;;15.50;98913.00;;;;5049551;28;20206;-82
2021/12/28 08:35:12;;;;;;;3.08;0.90;;;;;15.50;98914.00;;;;5049019;28;20658;-83
2021/12/28 08:37:40;;;;;;;1.77;1.05;;;;;15.50;98910.00;;;;5049273;28;20196;-83
2021/12/28 08:40:10;;;;;;;2.90;1.00;;;;;15.50;98907.00;;;;5049672;28;20207;-83
2021/12/28 08:42:37;;;;;;;2.13;0.95;;;;;15.50;98898.00;;;;5035236;28;20709;-82
2021/12/28 08:45:06;;;;;;;1.50;0.82;;;;;15.50;98901.00;;;;5029294;28;20215;-83
2021/12/28 08:47:34;;;;;;;3.67;1.42;;;;;15.50;98896.00;;;;5029166;28;20208;-83
2021/12/28 08:50:02;;;;;;;2.15;0.88;;;;;15.60;98896.00;;;;5029524;28;20207;-84
2021/12/28 08:52:30;;;;;;;1.27;0.95;;;;;15.60;98896.00;;;;5029020;28;20528;-83
2021/12/28 08:54:58;;;;;;;1.90;1.05;;;;;15.60;98899.00;;;;5029125;28;20192;-84
2021/12/28 08:57:25;;;;;;;1.45;1.00;;;;;15.60;98900.00;;;;5028825;28;20666;-84
2021/12/28 08:59:52;;;;;;;1.33;1.00;;;;;15.60;98898.00;;;;5044488;28;20203;-84
2021/12/28 09:02:20;;;;;;;3.55;1.67;;;;;15.60;98894.00;;;;5048535;28;20314;-84
2021/12/28 09:04:47;;;;;;;3.15;1.02;;;;;15.60;98889.00;;;;5048952;28;20211;-84
2021/12/28 09:07:16;;;;;;;1.00;0.90;;;;;15.60;98894.00;;;;5049388;28;20199;-84
2021/12/28 09:09:45;;;;;;;2.38;1.10;;;;;15.60;98888.00;;;;5048583;28;20299;-84
2021/12/28 09:12:14;;;;;;;2.78;1.00;;;;;15.60;98884.00;;;;5049111;28;20208;-84
2021/12/28 09:14:41;;;;;;;1.10;1.00;;;;;15.70;98887.00;;;;5049110;28;20207;-84
2021/12/28 09:17:09;;;;;;;4.43;1.40;;;;;15.70;98880.00;;;;5047084;28;20231;-84
2021/12/28 09:19:37;;;;;;;1.38;1.08;;;;;15.70;98871.00;;;;5048294;28;20196;-84
2021/12/28 09:22:05;;;;;;;2.13;1.27;;;;;15.70;98873.00;;;;5048488;28;20313;-84
2021/12/28 09:24:32;;;;;;;1.63;1.42;;;;;15.70;98869.00;;;;5048023;28;20250;-83
2021/12/28 09:27:01;;;;;;;1.45;1.33;;;;;15.70;98861.00;;;;5048033;28;20581;-84
2021/12/28 09:29:29;;;;;;;1.27;0.93;;;;;15.70;98862.00;;;;5047421;28;20626;-84
2021/12/28 09:31:57;;;;;;;2.53;1.33;;;;;15.70;98862.00;;;;5046843;28;20219;-84
2021/12/28 09:34:25;;;;;;;2.55;1.10;;;;;15.80;98860.00;;;;5040265;28;20681;-84
2021/12/28 09:36:53;;;;;;;2.47;1.38;;;;;15.80;98858.00;;;;5047802;28;20199;-84
2021/12/28 09:39:22;;;;;;;1.95;1.13;;;;;15.80;98859.00;;;;5048365;28;20582;-84
2021/12/28 09:41:51;;;;;;;3.45;1.65;;;;;15.80;98853.00;;;;5048099;28;20227;-85
2021/12/28 09:44:20;;;;;;;1.75;1.10;;;;;15.80;98854.00;;;;5048318;28;20717;-85
2021/12/28 09:46:48;;;;;;;1.20;1.02;;;;;15.80;98848.00;;;;5047729;28;20207;-85
2021/12/28 09:49:15;;;;;;;1.98;1.30;;;;;15.90;98852.00;;;;5046181;28;20211;-85
2021/12/28 09:51:43;;;;;;;1.30;1.20;;;;;15.90;98846.00;;;;5028421;28;20204;-85
2021/12/28 09:54:10;;;;;;;1.33;1.23;;;;;15.90;98839.00;;;;5027479;28;20204;-85
2021/12/28 09:56:37;;;;;;;1.38;1.13;;;;;15.90;98840.00;;;;5034924;28;20204;-85
2021/12/28 09:59:05;;;;;;;1.20;1.10;;;;;15.90;98841.00;;;;5048165;28;20581;-84
2021/12/28 10:01:34;;;;;;;1.35;0.90;;;;;15.90;98834.00;;;;5047684;28;20226;-85
2021/12/28 10:04:01;;;;;;;1.10;1.00;;;;;16.00;98835.00;;;;5047888;28;20208;-85
2021/12/28 10:06:30;;;;;;;1.40;1.17;;;;;16.00;98829.00;;;;5047072;28;20208;-84
2021/12/28 10:09:06;;;;;;;1.48;1.00;;;;;16.00;98825.00;;;;5048179;28;20203;-84
2021/12/28 10:11:35;;;;;;;1.33;1.20;;;;;16.00;98816.00;;;;5048061;28;20864;-85
2021/12/28 10:14:17;;;;;;;1.75;1.10;;;;;16.00;98816.00;;;;5047124;28;20199;-85
2021/12/28 10:16:49;;;;;;;1.48;1.20;;;;;16.00;98806.00;;;;5047159;28;20638;-85
2021/12/28 10:19:38;;;;;;;1.50;1.13;;;;;16.00;98810.00;;;;5047764;28;20595;-84
2021/12/28 10:22:30;;;;;;;1.92;1.10;;;;;16.00;98796.00;;;;5047939;28;20620;-85
2021/12/28 10:25:00;;;;;;;1.73;1.38;;;;;16.10;98797.00;;;;5030584;28;20742;-84
2021/12/28 10:27:30;;;;;;;1.52;1.42;;;;;16.10;98801.00;;;;5027772;28;20215;-85
2021/12/28 10:30:08;;;;;;;1.45;1.17;;;;;16.10;98788.00;;;;5027919;28;20594;-85
2021/12/28 10:32:37;;;;;;;1.13;1.02;;;;;16.10;98787.00;;;;5028891;28;20204;-85
2021/12/28 10:35:09;;;;;;;2.72;1.60;;;;;16.10;98784.00;;;;5031386;28;20208;-85
2021/12/28 10:37:38;;;;;;;1.60;1.27;;;;;16.20;98781.00;;;;5040540;28;20207;-84
2021/12/28 10:40:09;;;;;;;2.25;1.20;;;;;16.20;98777.00;;;;5049981;28;20203;-83
2021/12/28 10:42:48;;;;;;;2.10;1.50;;;;;16.10;98767.00;;;;5031719;28;20238;-84
2021/12/28 10:45:18;;;;;;;1.30;1.00;;;;;16.20;98770.00;;;;5051101;28;20196;-85
2021/12/28 10:47:48;;;;;;;1.33;1.15;;;;;16.20;98766.00;;;;5051398;28;20544;-83
2021/12/28 10:50:34;;;;;;;1.45;1.13;;;;;16.20;98764.00;;;;5052360;28;20212;-82
2021/12/28 10:53:11;;;;;;;1.45;1.20;;;;;16.20;98765.00;;;;5051532;28;20213;-84
2021/12/28 10:55:39;;;;;;;1.13;0.95;;;;;16.30;98760.00;;;;5051426;28;20199;-84
2021/12/28 10:58:07;;;;;;;2.65;1.10;;;;;16.30;98765.00;;;;5050090;28;20227;-85
2021/12/28 11:00:41;;;;;;;1.58;1.00;;;;;16.30;98758.00;;;;5051390;28;20206;-84
2021/12/28 11:03:30;;;;;;;2.42;1.23;;;;;16.20;98747.00;;;;5051406;28;20255;-84
2021/12/28 11:06:05;;;;;;;1.40;1.20;;;;;16.30;98739.00;;;;5051612;28;20846;-84
2021/12/28 11:08:32;;;;;;;1.10;1.00;;;;;16.40;98736.00;;;;5050961;28;20203;-85
2021/12/28 11:11:05;;;;;;;1.15;1.00;;;;;16.30;98731.00;;;;5050816;28;20211;-84
2021/12/28 11:13:34;;;;;;;1.20;1.00;;;;;16.40;98740.00;;;;5050755;28;20238;-85
2021/12/28 11:16:02;;;;;;;1.13;0.82;;;;;16.40;98730.00;;;;5049927;28;20242;-85
2021/12/28 11:18:33;;;;;;;0.73;0.70;;;;;16.40;98727.00;;;;5050039;28;20214;-85
2021/12/28 11:21:03;;;;;;;0.63;0.60;;;;;16.50;98734.00;;;;5050997;28;20208;-85
2021/12/28 11:23:31;;;;;;;1.42;1.20;;;;;16.50;98724.00;;;;5050846;28;20601;-84
2021/12/28 11:26:11;;;;;;;0.93;0.82;;;;;16.40;98725.00;;;;5051397;28;20214;-85
2021/12/28 11:28:41;;;;;;;2.05;1.00;;;;;16.50;98718.00;;;;5051210;28;20195;-83
2021/12/28 11:31:14;;;;;;;1.10;0.88;;;;;16.50;98711.00;;;;5049269;28;20200;-84
2021/12/28 11:33:55;;;;;;;1.05;0.90;;;;;16.40;98707.00;;;;5031301;28;20201;-85
2021/12/28 11:36:26;;;;;;;1.50;0.85;;;;;16.50;98698.00;;;;5031412;28;20224;-85
2021/12/28 11:38:54;;;;;;;0.82;0.80;;;;;16.50;98692.00;;;;5030866;28;20204;-85
2021/12/28 11:41:25;;;;;;;1.05;0.90;;;;;16.50;98689.00;;;;5031734;28;20203;-84
2021/12/28 11:43:54;;;;;;;1.65;1.10;;;;;16.50;98678.00;;;;5030637;28;20302;-84
2021/12/28 11:46:22;;;;;;;1.60;1.20;;;;;16.50;98676.00;;;;5031443;28;20200;-85
2021/12/28 11:48:51;;;;;;;1.75;1.40;;;;;16.50;98673.00;;;;5037852;28;20208;-84
2021/12/28 11:51:20;;;;;;;2.05;1.27;;;;;16.50;98671.00;;;;5051349;28;20215;-84
2021/12/28 11:53:48;;;;;;;2.03;1.67;;;;;16.50;98660.00;;;;5050370;28;20208;-84
2021/12/28 11:56:18;;;;;;;2.22;1.30;;;;;16.50;98656.00;;;;5051036;28;20543;-85
2021/12/28 11:59:00;;;;;;;1.73;1.50;;;;;16.50;98652.00;;;;5050898;28;20714;-85
2021/12/28 12:01:56;;;;;;;1.27;1.17;;;;;16.40;98652.00;;;;5050827;28;20199;-86
2021/12/28 12:04:52;;;;;;;1.60;1.42;;;;;16.40;98639.00;;;;5051127;28;20195;-85
2021/12/28 12:07:23;;;;;;;1.83;1.10;;;;;16.50;98639.00;;;;5017974;28;20219;-86
2021/12/28 12:10:10;;;;;;;1.40;1.27;;;;;16.40;98640.00;;;;5030876;28;21086;-85
2021/12/28 12:12:55;;;;;;;1.20;1.10;;;;;16.40;98631.00;;;;5031008;28;20188;-84
2021/12/28 12:15:25;;;;;;;1.20;1.10;;;;;16.40;98638.00;;;;5030362;28;20203;-85
2021/12/28 12:17:56;;;;;;;0.95;0.60;;;;;16.40;98640.00;;;;5030622;28;20666;-84
2021/12/28 12:20:30;;;;;;;1.45;0.95;;;;;16.40;98659.00;;;;5045995;28;20691;-84
2021/12/28 12:23:12;;;;;;;0.60;0.57;;;;;16.30;98671.00;;;;5041754;28;20316;-85
2021/12/28 12:26:08;;;;;;;0.50;0.38;;;;;16.20;98675.00;;;;5030362;28;20204;-85
2021/12/28 12:28:49;;;;;;;1.08;0.57;;;;;16.20;98684.00;;;;5017653;28;20212;-84